sensor_id;sensor_type;location;lat;lon;timestamp;P1;durP1;ratioP1;P2;durP2;ratioP2
83761;SDS011;73752;49.594;8.734;2024-03-02T00:01:07;33.60;;;19.15;;
83761;SDS011;73752;49.594;8.734;2024-03-02T00:04:11;37.28;;;20.70;;
83761;SDS011;73752;49.594;8.734;2024-03-02T00:07:15;35.20;;;20.37;;
83761;SDS011;73752;49.594;8.734;2024-03-02T00:10:19;35.95;;;20.05;;
83761;SDS011;73752;49.594;8.734;2024-03-02T00:13:25;35.72;;;20.80;;
83761;SDS011;73752;49.594;8.734;2024-03-02T00:16:30;39.58;;;21.00;;
83761;SDS011;73752;49.594;8.734;2024-03-02T00:19:38;39.90;;;20.75;;
83761;SDS011;73752;49.594;8.734;2024-03-02T00:22:40;45.45;;;24.52;;
83761;SDS011;73752;49.594;8.734;2024-03-02T00:25:44;46.17;;;23.52;;
83761;SDS011;73752;49.594;8.734;2024-03-02T00:28:50;46.75;;;23.30;;
83761;SDS011;73752;49.594;8.734;2024-03-02T00:31:57;46.47;;;22.55;;
83761;SDS011;73752;49.594;8.734;2024-03-02T00:34:58;45.25;;;22.95;;
83761;SDS011;73752;49.594;8.734;2024-03-02T00:38:06;56.78;;;25.63;;
83761;SDS011;73752;49.594;8.734;2024-03-02T00:41:08;59.00;;;27.98;;
83761;SDS011;73752;49.594;8.734;2024-03-02T00:44:18;52.30;;;24.95;;
83761;SDS011;73752;49.594;8.734;2024-03-02T00:47:22;40.53;;;23.42;;
83761;SDS011;73752;49.594;8.734;2024-03-02T00:50:24;43.47;;;22.33;;
83761;SDS011;73752;49.594;8.734;2024-03-02T00:53:25;39.60;;;21.52;;
83761;SDS011;73752;49.594;8.734;2024-03-02T00:56:27;38.65;;;21.02;;
83761;SDS011;73752;49.594;8.734;2024-03-02T00:59:29;37.95;;;21.35;;
83761;SDS011;73752;49.594;8.734;2024-03-02T01:02:32;43.83;;;24.48;;
83761;SDS011;73752;49.594;8.734;2024-03-02T01:05:33;47.17;;;23.92;;
83761;SDS011;73752;49.594;8.734;2024-03-02T01:08:35;57.10;;;27.20;;
83761;SDS011;73752;49.594;8.734;2024-03-02T01:11:37;59.55;;;27.08;;
83761;SDS011;73752;49.594;8.734;2024-03-02T01:14:39;62.42;;;28.40;;
83761;SDS011;73752;49.594;8.734;2024-03-02T01:17:40;56.53;;;27.33;;
83761;SDS011;73752;49.594;8.734;2024-03-02T01:20:41;50.20;;;26.20;;
83761;SDS011;73752;49.594;8.734;2024-03-02T01:23:43;43.20;;;22.63;;
83761;SDS011;73752;49.594;8.734;2024-03-02T01:26:44;50.97;;;24.13;;
83761;SDS011;73752;49.594;8.734;2024-03-02T01:29:44;46.38;;;23.95;;
83761;SDS011;73752;49.594;8.734;2024-03-02T01:32:45;49.53;;;25.42;;
83761;SDS011;73752;49.594;8.734;2024-03-02T01:35:45;51.47;;;25.55;;
83761;SDS011;73752;49.594;8.734;2024-03-02T01:38:46;52.00;;;26.63;;
83761;SDS011;73752;49.594;8.734;2024-03-02T01:41:48;56.15;;;27.08;;
83761;SDS011;73752;49.594;8.734;2024-03-02T01:44:50;59.10;;;27.30;;
83761;SDS011;73752;49.594;8.734;2024-03-02T01:47:52;55.08;;;26.77;;
83761;SDS011;73752;49.594;8.734;2024-03-02T01:50:53;45.67;;;24.88;;
83761;SDS011;73752;49.594;8.734;2024-03-02T01:53:55;50.28;;;23.33;;
83761;SDS011;73752;49.594;8.734;2024-03-02T01:56:57;41.42;;;21.98;;
83761;SDS011;73752;49.594;8.734;2024-03-02T02:00:00;38.55;;;21.67;;
83761;SDS011;73752;49.594;8.734;2024-03-02T02:03:04;36.70;;;20.98;;
83761;SDS011;73752;49.594;8.734;2024-03-02T02:06:07;33.33;;;20.35;;
83761;SDS011;73752;49.594;8.734;2024-03-02T02:09:09;40.47;;;23.65;;
83761;SDS011;73752;49.594;8.734;2024-03-02T02:12:11;43.72;;;21.90;;
83761;SDS011;73752;49.594;8.734;2024-03-02T02:18:28;41.35;;;23.73;;
83761;SDS011;73752;49.594;8.734;2024-03-02T02:21:31;53.22;;;27.30;;
83761;SDS011;73752;49.594;8.734;2024-03-02T02:24:33;60.17;;;30.20;;
83761;SDS011;73752;49.594;8.734;2024-03-02T02:27:34;63.55;;;31.00;;
83761;SDS011;73752;49.594;8.734;2024-03-02T02:30:36;76.82;;;32.70;;
83761;SDS011;73752;49.594;8.734;2024-03-02T02:33:42;69.65;;;32.13;;
83761;SDS011;73752;49.594;8.734;2024-03-02T02:36:44;66.50;;;31.15;;
83761;SDS011;73752;49.594;8.734;2024-03-02T02:39:45;64.50;;;28.70;;
83761;SDS011;73752;49.594;8.734;2024-03-02T02:42:47;53.72;;;26.42;;
83761;SDS011;73752;49.594;8.734;2024-03-02T02:45:49;78.65;;;32.65;;
83761;SDS011;73752;49.594;8.734;2024-03-02T02:48:50;81.35;;;34.67;;
83761;SDS011;73752;49.594;8.734;2024-03-02T02:51:53;92.88;;;36.40;;
83761;SDS011;73752;49.594;8.734;2024-03-02T02:54:55;88.70;;;35.70;;
83761;SDS011;73752;49.594;8.734;2024-03-02T02:57:57;92.82;;;37.33;;
83761;SDS011;73752;49.594;8.734;2024-03-02T03:00:58;95.22;;;39.15;;
83761;SDS011;73752;49.594;8.734;2024-03-02T03:04:00;93.55;;;37.35;;
83761;SDS011;73752;49.594;8.734;2024-03-02T03:07:02;71.53;;;32.08;;
83761;SDS011;73752;49.594;8.734;2024-03-02T03:10:04;50.50;;;24.35;;
83761;SDS011;73752;49.594;8.734;2024-03-02T03:13:07;42.70;;;20.10;;
83761;SDS011;73752;49.594;8.734;2024-03-02T03:16:08;37.72;;;19.00;;
83761;SDS011;73752;49.594;8.734;2024-03-02T03:19:10;41.15;;;21.38;;
83761;SDS011;73752;49.594;8.734;2024-03-02T03:22:12;38.85;;;19.75;;
83761;SDS011;73752;49.594;8.734;2024-03-02T03:25:14;41.70;;;22.13;;
83761;SDS011;73752;49.594;8.734;2024-03-02T03:28:16;52.58;;;26.90;;
83761;SDS011;73752;49.594;8.734;2024-03-02T03:31:18;54.90;;;27.92;;
83761;SDS011;73752;49.594;8.734;2024-03-02T03:34:20;69.32;;;31.58;;
83761;SDS011;73752;49.594;8.734;2024-03-02T03:37:25;74.97;;;31.58;;
83761;SDS011;73752;49.594;8.734;2024-03-02T03:40:33;73.25;;;33.00;;
83761;SDS011;73752;49.594;8.734;2024-03-02T03:43:35;85.55;;;34.35;;
83761;SDS011;73752;49.594;8.734;2024-03-02T03:46:37;66.95;;;29.40;;
83761;SDS011;73752;49.594;8.734;2024-03-02T03:49:39;54.08;;;25.98;;
83761;SDS011;73752;49.594;8.734;2024-03-02T03:52:44;43.58;;;22.15;;
83761;SDS011;73752;49.594;8.734;2024-03-02T03:55:46;50.17;;;23.48;;
83761;SDS011;73752;49.594;8.734;2024-03-02T03:58:49;55.17;;;26.55;;
83761;SDS011;73752;49.594;8.734;2024-03-02T04:01:51;55.05;;;26.05;;
83761;SDS011;73752;49.594;8.734;2024-03-02T04:04:54;76.47;;;31.88;;
83761;SDS011;73752;49.594;8.734;2024-03-02T04:07:55;86.07;;;33.30;;
83761;SDS011;73752;49.594;8.734;2024-03-02T04:10:56;89.07;;;35.80;;
83761;SDS011;73752;49.594;8.734;2024-03-02T04:13:58;95.43;;;36.45;;
83761;SDS011;73752;49.594;8.734;2024-03-02T04:17:00;105.30;;;38.72;;
83761;SDS011;73752;49.594;8.734;2024-03-02T04:20:01;102.20;;;36.47;;
83761;SDS011;73752;49.594;8.734;2024-03-02T04:23:05;93.15;;;33.60;;
83761;SDS011;73752;49.594;8.734;2024-03-02T04:26:06;79.45;;;33.15;;
83761;SDS011;73752;49.594;8.734;2024-03-02T04:29:08;83.43;;;34.42;;
83761;SDS011;73752;49.594;8.734;2024-03-02T04:32:10;78.28;;;31.98;;
83761;SDS011;73752;49.594;8.734;2024-03-02T04:35:12;61.15;;;28.15;;
83761;SDS011;73752;49.594;8.734;2024-03-02T04:38:14;68.45;;;28.92;;
83761;SDS011;73752;49.594;8.734;2024-03-02T04:41:17;65.63;;;28.65;;
83761;SDS011;73752;49.594;8.734;2024-03-02T04:44:19;45.92;;;23.60;;
83761;SDS011;73752;49.594;8.734;2024-03-02T04:47:21;44.20;;;21.75;;
83761;SDS011;73752;49.594;8.734;2024-03-02T04:50:23;46.22;;;22.48;;
83761;SDS011;73752;49.594;8.734;2024-03-02T04:53:25;58.05;;;26.90;;
83761;SDS011;73752;49.594;8.734;2024-03-02T04:56:26;74.20;;;32.15;;
83761;SDS011;73752;49.594;8.734;2024-03-02T04:59:33;53.80;;;25.95;;
83761;SDS011;73752;49.594;8.734;2024-03-02T05:02:35;58.95;;;27.48;;
83761;SDS011;73752;49.594;8.734;2024-03-02T05:05:36;61.60;;;25.50;;
83761;SDS011;73752;49.594;8.734;2024-03-02T05:08:38;56.88;;;25.73;;
83761;SDS011;73752;49.594;8.734;2024-03-02T05:11:40;49.28;;;23.08;;
83761;SDS011;73752;49.594;8.734;2024-03-02T05:17:46;42.75;;;20.10;;
83761;SDS011;73752;49.594;8.734;2024-03-02T05:20:48;39.65;;;19.67;;
83761;SDS011;73752;49.594;8.734;2024-03-02T05:23:50;42.45;;;19.85;;
83761;SDS011;73752;49.594;8.734;2024-03-02T05:26:52;49.65;;;20.75;;
83761;SDS011;73752;49.594;8.734;2024-03-02T05:29:53;40.80;;;20.25;;
83761;SDS011;73752;49.594;8.734;2024-03-02T05:32:55;37.03;;;18.80;;
83761;SDS011;73752;49.594;8.734;2024-03-02T05:35:56;40.03;;;19.42;;
83761;SDS011;73752;49.594;8.734;2024-03-02T05:38:58;38.35;;;20.20;;
83761;SDS011;73752;49.594;8.734;2024-03-02T05:42:00;39.95;;;20.05;;
83761;SDS011;73752;49.594;8.734;2024-03-02T05:45:02;40.97;;;20.88;;
83761;SDS011;73752;49.594;8.734;2024-03-02T05:48:04;48.75;;;22.98;;
83761;SDS011;73752;49.594;8.734;2024-03-02T05:51:08;54.53;;;24.10;;
83761;SDS011;73752;49.594;8.734;2024-03-02T05:54:09;63.28;;;26.25;;
83761;SDS011;73752;49.594;8.734;2024-03-02T05:57:11;61.70;;;27.35;;
83761;SDS011;73752;49.594;8.734;2024-03-02T06:00:31;55.55;;;23.65;;
83761;SDS011;73752;49.594;8.734;2024-03-02T06:03:34;51.70;;;23.08;;
83761;SDS011;73752;49.594;8.734;2024-03-02T06:06:36;51.28;;;22.15;;
83761;SDS011;73752;49.594;8.734;2024-03-02T06:09:38;44.45;;;20.65;;
83761;SDS011;73752;49.594;8.734;2024-03-02T06:12:40;36.63;;;17.40;;
83761;SDS011;73752;49.594;8.734;2024-03-02T06:15:42;45.40;;;19.50;;
83761;SDS011;73752;49.594;8.734;2024-03-02T06:18:44;46.72;;;20.27;;
83761;SDS011;73752;49.594;8.734;2024-03-02T06:21:46;38.72;;;18.95;;
83761;SDS011;73752;49.594;8.734;2024-03-02T06:24:47;42.70;;;22.02;;
83761;SDS011;73752;49.594;8.734;2024-03-02T06:27:49;40.13;;;20.92;;
83761;SDS011;73752;49.594;8.734;2024-03-02T06:30:49;37.22;;;20.17;;
83761;SDS011;73752;49.594;8.734;2024-03-02T06:33:50;43.08;;;20.17;;
83761;SDS011;73752;49.594;8.734;2024-03-02T06:36:50;44.50;;;20.45;;
83761;SDS011;73752;49.594;8.734;2024-03-02T06:39:50;42.42;;;20.45;;
83761;SDS011;73752;49.594;8.734;2024-03-02T06:46:48;50.03;;;22.10;;
83761;SDS011;73752;49.594;8.734;2024-03-02T06:49:48;37.80;;;19.73;;
83761;SDS011;73752;49.594;8.734;2024-03-02T06:52:49;33.45;;;17.33;;
83761;SDS011;73752;49.594;8.734;2024-03-02T06:55:49;35.20;;;18.75;;
83761;SDS011;73752;49.594;8.734;2024-03-02T07:02:30;41.85;;;20.42;;
83761;SDS011;73752;49.594;8.734;2024-03-02T07:12:54;35.20;;;18.33;;
83761;SDS011;73752;49.594;8.734;2024-03-02T07:16:07;33.53;;;17.83;;
83761;SDS011;73752;49.594;8.734;2024-03-02T07:23:07;33.55;;;17.73;;
83761;SDS011;73752;49.594;8.734;2024-03-02T07:35:39;30.20;;;17.80;;
83761;SDS011;73752;49.594;8.734;2024-03-02T07:38:40;34.08;;;18.13;;
83761;SDS011;73752;49.594;8.734;2024-03-02T07:42:00;31.40;;;18.40;;
83761;SDS011;73752;49.594;8.734;2024-03-02T07:45:58;30.38;;;16.40;;
83761;SDS011;73752;49.594;8.734;2024-03-02T07:49:56;31.65;;;17.27;;
83761;SDS011;73752;49.594;8.734;2024-03-02T07:52:56;27.95;;;15.88;;
83761;SDS011;73752;49.594;8.734;2024-03-02T07:55:57;33.15;;;18.83;;
83761;SDS011;73752;49.594;8.734;2024-03-02T07:59:02;32.20;;;18.25;;
83761;SDS011;73752;49.594;8.734;2024-03-02T08:02:03;33.50;;;18.00;;
83761;SDS011;73752;49.594;8.734;2024-03-02T08:05:23;30.52;;;17.55;;
83761;SDS011;73752;49.594;8.734;2024-03-02T08:08:32;27.33;;;15.57;;
83761;SDS011;73752;49.594;8.734;2024-03-02T08:15:30;28.15;;;15.50;;
83761;SDS011;73752;49.594;8.734;2024-03-02T08:18:31;26.50;;;15.52;;
83761;SDS011;73752;49.594;8.734;2024-03-02T08:21:51;24.27;;;14.02;;
83761;SDS011;73752;49.594;8.734;2024-03-02T08:24:52;23.40;;;13.63;;
83761;SDS011;73752;49.594;8.734;2024-03-02T08:27:53;21.27;;;14.15;;
83761;SDS011;73752;49.594;8.734;2024-03-02T08:30:54;29.48;;;14.13;;
83761;SDS011;73752;49.594;8.734;2024-03-02T08:33:55;22.48;;;12.93;;
83761;SDS011;73752;49.594;8.734;2024-03-02T08:36:57;23.02;;;13.68;;
83761;SDS011;73752;49.594;8.734;2024-03-02T08:39:57;21.40;;;13.32;;
83761;SDS011;73752;49.594;8.734;2024-03-02T08:42:58;20.38;;;13.68;;
83761;SDS011;73752;49.594;8.734;2024-03-02T08:45:59;21.88;;;13.05;;
83761;SDS011;73752;49.594;8.734;2024-03-02T08:49:00;24.75;;;12.27;;
83761;SDS011;73752;49.594;8.734;2024-03-02T08:52:01;18.17;;;11.93;;
83761;SDS011;73752;49.594;8.734;2024-03-02T08:55:01;19.50;;;11.70;;
83761;SDS011;73752;49.594;8.734;2024-03-02T08:58:02;25.95;;;14.02;;
83761;SDS011;73752;49.594;8.734;2024-03-02T09:01:03;21.00;;;12.98;;
83761;SDS011;73752;49.594;8.734;2024-03-02T09:04:04;21.38;;;12.88;;
83761;SDS011;73752;49.594;8.734;2024-03-02T09:07:05;21.08;;;12.40;;
83761;SDS011;73752;49.594;8.734;2024-03-02T09:10:07;20.80;;;12.38;;
83761;SDS011;73752;49.594;8.734;2024-03-02T09:13:08;21.23;;;12.93;;
83761;SDS011;73752;49.594;8.734;2024-03-02T09:16:09;18.13;;;11.73;;
83761;SDS011;73752;49.594;8.734;2024-03-02T09:19:11;17.70;;;10.90;;
83761;SDS011;73752;49.594;8.734;2024-03-02T09:22:11;16.83;;;10.45;;
83761;SDS011;73752;49.594;8.734;2024-03-02T09:25:12;17.85;;;11.48;;
83761;SDS011;73752;49.594;8.734;2024-03-02T09:28:12;15.27;;;10.32;;
83761;SDS011;73752;49.594;8.734;2024-03-02T09:31:12;16.10;;;10.48;;
83761;SDS011;73752;49.594;8.734;2024-03-02T09:34:13;15.73;;;10.82;;
83761;SDS011;73752;49.594;8.734;2024-03-02T09:37:14;15.57;;;10.50;;
83761;SDS011;73752;49.594;8.734;2024-03-02T09:40:15;17.27;;;11.00;;
83761;SDS011;73752;49.594;8.734;2024-03-02T09:43:16;19.10;;;11.57;;
83761;SDS011;73752;49.594;8.734;2024-03-02T09:46:16;19.02;;;11.88;;
83761;SDS011;73752;49.594;8.734;2024-03-02T09:49:17;21.17;;;12.88;;
83761;SDS011;73752;49.594;8.734;2024-03-02T09:52:18;24.33;;;12.18;;
83761;SDS011;73752;49.594;8.734;2024-03-02T09:55:18;22.08;;;12.77;;
83761;SDS011;73752;49.594;8.734;2024-03-02T09:58:19;20.15;;;12.23;;
83761;SDS011;73752;49.594;8.734;2024-03-02T10:01:22;19.38;;;11.63;;
83761;SDS011;73752;49.594;8.734;2024-03-02T10:04:23;18.88;;;11.13;;
83761;SDS011;73752;49.594;8.734;2024-03-02T10:07:25;16.48;;;9.77;;
83761;SDS011;73752;49.594;8.734;2024-03-02T10:10:33;17.42;;;9.60;;
83761;SDS011;73752;49.594;8.734;2024-03-02T10:13:40;15.45;;;9.75;;
83761;SDS011;73752;49.594;8.734;2024-03-02T10:16:41;12.48;;;7.70;;
83761;SDS011;73752;49.594;8.734;2024-03-02T10:19:42;11.18;;;7.28;;
83761;SDS011;73752;49.594;8.734;2024-03-02T10:22:42;15.55;;;7.50;;
83761;SDS011;73752;49.594;8.734;2024-03-02T10:25:43;9.35;;;5.75;;
83761;SDS011;73752;49.594;8.734;2024-03-02T10:28:46;7.47;;;5.35;;
83761;SDS011;73752;49.594;8.734;2024-03-02T10:31:47;8.63;;;5.68;;
83761;SDS011;73752;49.594;8.734;2024-03-02T10:34:48;10.63;;;5.78;;
83761;SDS011;73752;49.594;8.734;2024-03-02T10:37:50;7.88;;;4.97;;
83761;SDS011;73752;49.594;8.734;2024-03-02T10:40:50;8.25;;;5.43;;
83761;SDS011;73752;49.594;8.734;2024-03-02T10:43:52;9.60;;;5.40;;
83761;SDS011;73752;49.594;8.734;2024-03-02T10:46:59;7.45;;;4.60;;
83761;SDS011;73752;49.594;8.734;2024-03-02T10:50:04;6.95;;;3.70;;
83761;SDS011;73752;49.594;8.734;2024-03-02T10:53:08;4.20;;;3.03;;
83761;SDS011;73752;49.594;8.734;2024-03-02T10:56:08;3.65;;;2.65;;
83761;SDS011;73752;49.594;8.734;2024-03-02T11:02:30;6.55;;;2.83;;
83761;SDS011;73752;49.594;8.734;2024-03-02T11:05:33;4.45;;;3.20;;
83761;SDS011;73752;49.594;8.734;2024-03-02T11:08:37;3.90;;;2.95;;
83761;SDS011;73752;49.594;8.734;2024-03-02T11:11:40;4.85;;;2.88;;
83761;SDS011;73752;49.594;8.734;2024-03-02T11:14:43;3.10;;;2.00;;
83761;SDS011;73752;49.594;8.734;2024-03-02T11:17:44;4.00;;;2.08;;
83761;SDS011;73752;49.594;8.734;2024-03-02T11:20:46;2.67;;;1.90;;
83761;SDS011;73752;49.594;8.734;2024-03-02T11:23:46;3.83;;;1.83;;
83761;SDS011;73752;49.594;8.734;2024-03-02T11:26:47;1.80;;;1.52;;
83761;SDS011;73752;49.594;8.734;2024-03-02T11:29:48;2.17;;;1.33;;
83761;SDS011;73752;49.594;8.734;2024-03-02T11:32:54;4.20;;;1.70;;
83761;SDS011;73752;49.594;8.734;2024-03-02T11:35:55;4.50;;;1.92;;
83761;SDS011;73752;49.594;8.734;2024-03-02T11:38:56;1.60;;;1.10;;
83761;SDS011;73752;49.594;8.734;2024-03-02T11:41:56;2.20;;;1.60;;
83761;SDS011;73752;49.594;8.734;2024-03-02T11:44:57;2.08;;;1.75;;
83761;SDS011;73752;49.594;8.734;2024-03-02T11:47:58;1.60;;;1.50;;
83761;SDS011;73752;49.594;8.734;2024-03-02T11:51:00;2.40;;;1.55;;
83761;SDS011;73752;49.594;8.734;2024-03-02T11:54:01;1.80;;;1.42;;
83761;SDS011;73752;49.594;8.734;2024-03-02T11:57:04;1.60;;;1.42;;
83761;SDS011;73752;49.594;8.734;2024-03-02T12:00:06;4.07;;;1.63;;
83761;SDS011;73752;49.594;8.734;2024-03-02T12:03:17;2.28;;;1.85;;
83761;SDS011;73752;49.594;8.734;2024-03-02T12:06:17;4.90;;;1.73;;
83761;SDS011;73752;49.594;8.734;2024-03-02T12:09:19;2.33;;;1.50;;
83761;SDS011;73752;49.594;8.734;2024-03-02T12:12:20;2.00;;;1.65;;
83761;SDS011;73752;49.594;8.734;2024-03-02T12:15:23;4.60;;;2.97;;
83761;SDS011;73752;49.594;8.734;2024-03-02T12:18:27;4.63;;;2.80;;
83761;SDS011;73752;49.594;8.734;2024-03-02T12:21:27;4.13;;;2.92;;
83761;SDS011;73752;49.594;8.734;2024-03-02T12:24:28;3.65;;;2.80;;
83761;SDS011;73752;49.594;8.734;2024-03-02T12:27:29;2.20;;;1.65;;
83761;SDS011;73752;49.594;8.734;2024-03-02T12:30:30;2.65;;;2.17;;
83761;SDS011;73752;49.594;8.734;2024-03-02T12:33:31;2.95;;;2.42;;
83761;SDS011;73752;49.594;8.734;2024-03-02T12:36:36;3.45;;;2.45;;
83761;SDS011;73752;49.594;8.734;2024-03-02T12:39:38;2.97;;;1.75;;
83761;SDS011;73752;49.594;8.734;2024-03-02T12:42:39;1.25;;;1.15;;
83761;SDS011;73752;49.594;8.734;2024-03-02T12:45:41;1.40;;;1.30;;
83761;SDS011;73752;49.594;8.734;2024-03-02T12:48:42;2.75;;;1.08;;
83761;SDS011;73752;49.594;8.734;2024-03-02T12:51:42;2.58;;;0.93;;
83761;SDS011;73752;49.594;8.734;2024-03-02T12:54:43;2.30;;;0.80;;
83761;SDS011;73752;49.594;8.734;2024-03-02T12:57:44;1.52;;;0.60;;
83761;SDS011;73752;49.594;8.734;2024-03-02T13:00:44;1.38;;;0.65;;
83761;SDS011;73752;49.594;8.734;2024-03-02T13:03:44;1.13;;;0.90;;
83761;SDS011;73752;49.594;8.734;2024-03-02T13:06:45;1.95;;;1.38;;
83761;SDS011;73752;49.594;8.734;2024-03-02T13:09:45;1.08;;;0.80;;
83761;SDS011;73752;49.594;8.734;2024-03-02T13:12:46;3.00;;;0.88;;
83761;SDS011;73752;49.594;8.734;2024-03-02T13:15:46;1.80;;;0.70;;
83761;SDS011;73752;49.594;8.734;2024-03-02T13:18:49;1.40;;;0.70;;
83761;SDS011;73752;49.594;8.734;2024-03-02T13:21:57;1.63;;;0.80;;
83761;SDS011;73752;49.594;8.734;2024-03-02T13:24:59;1.02;;;0.80;;
83761;SDS011;73752;49.594;8.734;2024-03-02T13:28:01;1.52;;;1.10;;
83761;SDS011;73752;49.594;8.734;2024-03-02T13:31:03;1.08;;;0.95;;
83761;SDS011;73752;49.594;8.734;2024-03-02T13:34:03;1.13;;;0.60;;
83761;SDS011;73752;49.594;8.734;2024-03-02T13:37:04;0.82;;;0.60;;
83761;SDS011;73752;49.594;8.734;2024-03-02T13:40:05;1.52;;;0.65;;
83761;SDS011;73752;49.594;8.734;2024-03-02T13:43:06;1.20;;;1.10;;
83761;SDS011;73752;49.594;8.734;2024-03-02T13:46:06;0.70;;;0.65;;
83761;SDS011;73752;49.594;8.734;2024-03-02T13:49:07;1.05;;;0.90;;
83761;SDS011;73752;49.594;8.734;2024-03-02T13:52:07;1.15;;;0.73;;
83761;SDS011;73752;49.594;8.734;2024-03-02T13:55:13;1.85;;;1.10;;
83761;SDS011;73752;49.594;8.734;2024-03-02T13:58:13;1.75;;;1.00;;
83761;SDS011;73752;49.594;8.734;2024-03-02T14:01:14;1.20;;;0.90;;
83761;SDS011;73752;49.594;8.734;2024-03-02T14:04:14;8.18;;;1.30;;
83761;SDS011;73752;49.594;8.734;2024-03-02T14:07:15;1.20;;;1.10;;
83761;SDS011;73752;49.594;8.734;2024-03-02T14:10:15;1.08;;;0.98;;
83761;SDS011;73752;49.594;8.734;2024-03-02T14:13:16;1.50;;;1.10;;
83761;SDS011;73752;49.594;8.734;2024-03-02T14:16:16;1.30;;;0.77;;
83761;SDS011;73752;49.594;8.734;2024-03-02T14:19:16;1.48;;;1.00;;
83761;SDS011;73752;49.594;8.734;2024-03-02T14:22:17;1.52;;;1.42;;
83761;SDS011;73752;49.594;8.734;2024-03-02T14:25:17;1.35;;;1.10;;
83761;SDS011;73752;49.594;8.734;2024-03-02T14:28:19;2.10;;;1.13;;
83761;SDS011;73752;49.594;8.734;2024-03-02T14:31:28;2.15;;;1.35;;
83761;SDS011;73752;49.594;8.734;2024-03-02T14:34:35;3.63;;;2.80;;
83761;SDS011;73752;49.594;8.734;2024-03-02T14:37:44;2.90;;;1.92;;
83761;SDS011;73752;49.594;8.734;2024-03-02T14:40:52;1.58;;;1.00;;
83761;SDS011;73752;49.594;8.734;2024-03-02T14:43:53;0.77;;;0.77;;
83761;SDS011;73752;49.594;8.734;2024-03-02T14:46:58;1.52;;;1.23;;
83761;SDS011;73752;49.594;8.734;2024-03-02T14:49:59;1.58;;;1.20;;
83761;SDS011;73752;49.594;8.734;2024-03-02T14:52:59;1.52;;;1.42;;
83761;SDS011;73752;49.594;8.734;2024-03-02T14:56:01;5.85;;;4.78;;
83761;SDS011;73752;49.594;8.734;2024-03-02T14:59:01;4.07;;;2.92;;
83761;SDS011;73752;49.594;8.734;2024-03-02T15:02:02;2.20;;;1.80;;
83761;SDS011;73752;49.594;8.734;2024-03-02T15:05:03;3.38;;;1.60;;
83761;SDS011;73752;49.594;8.734;2024-03-02T15:08:05;1.95;;;1.55;;
83761;SDS011;73752;49.594;8.734;2024-03-02T15:11:06;2.08;;;1.40;;
83761;SDS011;73752;49.594;8.734;2024-03-02T15:14:07;1.10;;;0.88;;
83761;SDS011;73752;49.594;8.734;2024-03-02T15:17:08;2.17;;;1.40;;
83761;SDS011;73752;49.594;8.734;2024-03-02T15:20:08;3.25;;;1.27;;
83761;SDS011;73752;49.594;8.734;2024-03-02T15:23:09;3.03;;;1.20;;
83761;SDS011;73752;49.594;8.734;2024-03-02T15:26:10;2.65;;;1.55;;
83761;SDS011;73752;49.594;8.734;2024-03-02T15:29:11;1.13;;;1.00;;
83761;SDS011;73752;49.594;8.734;2024-03-02T15:32:12;1.20;;;1.10;;
83761;SDS011;73752;49.594;8.734;2024-03-02T15:35:12;1.10;;;1.00;;
83761;SDS011;73752;49.594;8.734;2024-03-02T15:38:13;2.42;;;1.48;;
83761;SDS011;73752;49.594;8.734;2024-03-02T15:41:15;2.05;;;1.48;;
83761;SDS011;73752;49.594;8.734;2024-03-02T15:44:15;1.67;;;1.35;;
83761;SDS011;73752;49.594;8.734;2024-03-02T15:47:16;1.10;;;0.98;;
83761;SDS011;73752;49.594;8.734;2024-03-02T15:50:16;1.30;;;1.20;;
83761;SDS011;73752;49.594;8.734;2024-03-02T15:53:17;1.30;;;1.05;;
83761;SDS011;73752;49.594;8.734;2024-03-02T15:56:17;2.45;;;1.65;;
83761;SDS011;73752;49.594;8.734;2024-03-02T15:59:18;1.77;;;1.17;;
83761;SDS011;73752;49.594;8.734;2024-03-02T16:02:19;1.98;;;1.17;;
83761;SDS011;73752;49.594;8.734;2024-03-02T16:05:19;1.73;;;1.40;;
83761;SDS011;73752;49.594;8.734;2024-03-02T16:08:20;2.15;;;1.20;;
83761;SDS011;73752;49.594;8.734;2024-03-02T16:11:21;2.22;;;1.20;;
83761;SDS011;73752;49.594;8.734;2024-03-02T16:14:21;1.27;;;1.05;;
83761;SDS011;73752;49.594;8.734;2024-03-02T16:17:21;2.97;;;1.40;;
83761;SDS011;73752;49.594;8.734;2024-03-02T16:20:22;1.88;;;1.20;;
83761;SDS011;73752;49.594;8.734;2024-03-02T16:23:23;4.47;;;1.30;;
83761;SDS011;73752;49.594;8.734;2024-03-02T16:26:24;1.65;;;1.40;;
83761;SDS011;73752;49.594;8.734;2024-03-02T16:29:24;1.30;;;1.10;;
83761;SDS011;73752;49.594;8.734;2024-03-02T16:32:25;2.72;;;1.30;;
83761;SDS011;73752;49.594;8.734;2024-03-02T16:35:26;1.40;;;1.00;;
83761;SDS011;73752;49.594;8.734;2024-03-02T16:38:26;5.80;;;2.47;;
83761;SDS011;73752;49.594;8.734;2024-03-02T16:41:27;8.35;;;5.40;;
83761;SDS011;73752;49.594;8.734;2024-03-02T16:44:29;17.77;;;10.10;;
83761;SDS011;73752;49.594;8.734;2024-03-02T16:47:30;8.35;;;5.07;;
83761;SDS011;73752;49.594;8.734;2024-03-02T16:50:30;14.77;;;10.23;;
83761;SDS011;73752;49.594;8.734;2024-03-02T16:53:30;10.10;;;5.30;;
83761;SDS011;73752;49.594;8.734;2024-03-02T16:56:38;5.47;;;3.60;;
83761;SDS011;73752;49.594;8.734;2024-03-02T16:59:39;4.20;;;2.78;;
83761;SDS011;73752;49.594;8.734;2024-03-02T17:02:40;5.10;;;3.03;;
83761;SDS011;73752;49.594;8.734;2024-03-02T17:05:41;4.07;;;2.67;;
83761;SDS011;73752;49.594;8.734;2024-03-02T17:08:41;14.88;;;5.68;;
83761;SDS011;73752;49.594;8.734;2024-03-02T17:11:42;23.50;;;11.90;;
83761;SDS011;73752;49.594;8.734;2024-03-02T17:14:42;20.63;;;10.93;;
83761;SDS011;73752;49.594;8.734;2024-03-02T17:17:42;9.93;;;3.35;;
83761;SDS011;73752;49.594;8.734;2024-03-02T17:20:43;19.40;;;10.90;;
83761;SDS011;73752;49.594;8.734;2024-03-02T17:23:43;8.07;;;3.20;;
83761;SDS011;73752;49.594;8.734;2024-03-02T17:26:43;9.23;;;3.70;;
83761;SDS011;73752;49.594;8.734;2024-03-02T17:29:44;8.50;;;4.72;;
83761;SDS011;73752;49.594;8.734;2024-03-02T17:32:44;5.80;;;3.42;;
83761;SDS011;73752;49.594;8.734;2024-03-02T17:35:45;8.35;;;4.70;;
83761;SDS011;73752;49.594;8.734;2024-03-02T17:38:47;8.68;;;4.65;;
83761;SDS011;73752;49.594;8.734;2024-03-02T17:41:48;8.20;;;4.57;;
83761;SDS011;73752;49.594;8.734;2024-03-02T17:44:51;7.88;;;4.50;;
83761;SDS011;73752;49.594;8.734;2024-03-02T17:47:53;13.70;;;5.55;;
83761;SDS011;73752;49.594;8.734;2024-03-02T17:50:55;10.15;;;5.43;;
83761;SDS011;73752;49.594;8.734;2024-03-02T17:54:00;13.32;;;7.40;;
83761;SDS011;73752;49.594;8.734;2024-03-02T17:57:02;18.17;;;9.10;;
83761;SDS011;73752;49.594;8.734;2024-03-02T18:00:04;21.45;;;12.10;;
83761;SDS011;73752;49.594;8.734;2024-03-02T18:03:10;21.23;;;11.18;;
83761;SDS011;73752;49.594;8.734;2024-03-02T18:06:12;28.40;;;15.15;;
83761;SDS011;73752;49.594;8.734;2024-03-02T18:09:17;30.45;;;13.27;;
83761;SDS011;73752;49.594;8.734;2024-03-02T18:12:19;50.28;;;21.83;;
83761;SDS011;73752;49.594;8.734;2024-03-02T18:15:24;36.22;;;19.02;;
83761;SDS011;73752;49.594;8.734;2024-03-02T18:18:26;33.17;;;15.60;;
83761;SDS011;73752;49.594;8.734;2024-03-02T18:21:28;23.17;;;11.13;;
83761;SDS011;73752;49.594;8.734;2024-03-02T18:24:30;24.48;;;11.38;;
83761;SDS011;73752;49.594;8.734;2024-03-02T18:27:35;24.60;;;11.65;;
83761;SDS011;73752;49.594;8.734;2024-03-02T18:30:37;19.05;;;11.00;;
83761;SDS011;73752;49.594;8.734;2024-03-02T18:33:39;15.30;;;8.65;;
83761;SDS011;73752;49.594;8.734;2024-03-02T18:36:40;11.73;;;7.63;;
83761;SDS011;73752;49.594;8.734;2024-03-02T18:39:43;12.02;;;6.38;;